createdAt,value
2017-10-21T00:03:57.653Z,"    0"
2017-10-21T00:08:54.162Z,"    0"
2017-10-21T00:13:49.529Z,"    0"
2017-10-21T00:18:46.652Z,"    0"
2017-10-21T00:23:42.589Z,"    0"
2017-10-21T00:28:39.614Z,"    0"
2017-10-21T00:33:35.092Z,"    0"
2017-10-21T00:38:32.136Z,"    0"
2017-10-21T00:43:27.783Z,"    0"
2017-10-21T00:48:24.531Z,"    0"
2017-10-21T00:53:20.013Z,"    0"
2017-10-21T00:58:16.873Z,"    0"
2017-10-21T01:03:13.551Z,"    0"
2017-10-21T01:08:10.221Z,"    0"
2017-10-21T01:13:06.695Z,"    0"
2017-10-21T01:18:02.122Z,"    0"
2017-10-21T01:22:57.916Z,"    0"
2017-10-21T01:27:53.676Z,"    0"
2017-10-21T01:32:49.577Z,"    0"
2017-10-21T01:37:45.236Z,"    0"
2017-10-21T01:42:41.019Z,"    0"
2017-10-21T01:47:37.691Z,"    0"
2017-10-21T01:52:33.622Z,"    0"
2017-10-21T01:57:29.264Z,"    0"
2017-10-21T02:02:25.275Z,"    0"
2017-10-21T02:07:22.182Z,"    0"
2017-10-21T02:12:17.231Z,"    0"
2017-10-21T02:17:13.206Z,"    0"
2017-10-21T02:22:09.084Z,"    0"
2017-10-21T02:27:05.274Z,"    0"
2017-10-21T02:32:01.059Z,"    0"
2017-10-21T02:36:57.763Z,"    0"
2017-10-21T02:41:55.549Z,"    0"
2017-10-21T02:46:50.925Z,"    0"
2017-10-21T02:51:46.566Z,"    0"
2017-10-21T02:56:42.525Z,"    0"
2017-10-21T03:01:39.481Z,"    0"
2017-10-21T03:06:35.270Z,"    0"
2017-10-21T03:11:31.139Z,"    0"
2017-10-21T03:16:27.140Z,"    0"
2017-10-21T03:21:22.916Z,"    0"
2017-10-21T03:26:19.078Z,"    0"
2017-10-21T03:31:15.659Z,"    0"
2017-10-21T03:36:12.272Z,"    0"
2017-10-21T03:41:07.778Z,"    0"
2017-10-21T03:46:04.710Z,"    0"
2017-10-21T03:51:01.363Z,"    0"
2017-10-21T03:55:58.085Z,"    0"
2017-10-21T04:00:54.700Z,"    0"
2017-10-21T04:05:50.404Z,"    0"
2017-10-21T04:10:46.482Z,"    0"
2017-10-21T04:15:42.163Z,"    0"
2017-10-21T04:20:38.221Z,"    0"
2017-10-21T04:25:34.083Z,"    0"
2017-10-21T04:30:29.777Z,"    0"
2017-10-21T04:35:25.770Z,"    0"
2017-10-21T04:40:21.750Z,"    0"
2017-10-21T04:45:17.687Z,"    0"
2017-10-21T04:50:14.822Z,"    0"
2017-10-21T04:55:12.441Z,"    0"
2017-10-21T05:00:07.760Z,"    0"
2017-10-21T05:05:03.788Z,"    0"
2017-10-21T05:10:00.539Z,"    0"
2017-10-21T05:14:56.225Z,"    0"
2017-10-21T05:19:53.131Z,"    0"
2017-10-21T05:24:48.879Z,"    0"
2017-10-21T05:29:45.932Z,"    0"
2017-10-21T05:34:41.458Z,"    0"
2017-10-21T05:39:37.206Z,"    0"
2017-10-21T05:44:34.554Z,"    0"
2017-10-21T05:49:31.259Z,"    0"
2017-10-21T05:54:27.773Z,"    0"
2017-10-21T05:59:23.611Z,"    0"
2017-10-21T06:04:20.237Z,"    5"
2017-10-21T06:09:16.482Z,"    5"
2017-10-21T06:14:11.998Z,"   10"
2017-10-21T06:19:07.688Z,"   15"
2017-10-21T06:24:03.539Z,"   20"
2017-10-21T06:29:01.314Z,"   25"
2017-10-21T06:33:56.866Z,"   30"
2017-10-21T06:38:54.025Z,"   30"
2017-10-21T06:43:49.779Z,"   30"
2017-10-21T06:48:45.560Z,"   45"
2017-10-21T06:53:41.393Z,"   50"
2017-10-21T06:58:37.071Z,"   50"
2017-10-21T07:03:32.972Z,"   60"
2017-10-21T07:08:29.607Z,"   60"
2017-10-21T07:13:25.229Z,"   45"
2017-10-21T07:18:21.129Z,"   55"
2017-10-21T07:23:17.208Z,"   40"
2017-10-21T07:28:14.476Z,"   55"
2017-10-21T07:33:11.018Z,"   35"
2017-10-21T07:38:06.923Z,"   25"
2017-10-21T07:43:05.317Z,"   60"
2017-10-21T07:48:01.390Z,"   55"
2017-10-21T07:52:58.109Z,"   65"
2017-10-21T07:57:54.902Z,"   55"
2017-10-21T08:02:52.737Z,"   75"
2017-10-21T08:07:48.376Z,"   60"
2017-10-21T08:12:44.363Z,"   35"
2017-10-21T08:17:41.089Z,"   50"
2017-10-21T08:22:36.884Z,"   60"
2017-10-21T08:27:35.393Z,"   50"
2017-10-21T08:32:30.684Z,"   60"
2017-10-21T08:37:28.068Z,"   50"
2017-10-21T08:42:24.450Z,"   40"
2017-10-21T08:47:19.748Z,"   45"
2017-10-21T08:52:15.287Z,"   55"
2017-10-21T08:57:12.473Z,"   40"
2017-10-21T09:02:07.737Z,"   75"
2017-10-21T09:07:03.680Z,"   80"
2017-10-21T09:11:59.570Z,"   75"
2017-10-21T09:16:55.282Z,"   70"
2017-10-21T09:21:52.455Z,"   75"
2017-10-21T09:26:50.330Z,"   85"
2017-10-21T09:31:46.451Z,"   75"
2017-10-21T09:36:42.476Z,"   70"
2017-10-21T09:41:38.836Z,"   75"
2017-10-21T09:46:34.704Z,"   70"
2017-10-21T09:51:31.559Z,"   95"
2017-10-21T09:56:27.401Z,"   75"
2017-10-21T10:01:24.002Z,"   65"
2017-10-21T10:06:21.843Z,"   70"
2017-10-21T10:11:18.309Z,"   65"
2017-10-21T10:16:14.470Z,"   80"
2017-10-21T10:21:10.103Z,"   60"
2017-10-21T10:26:07.007Z,"   55"
2017-10-21T10:31:04.579Z,"   80"
2017-10-21T10:35:59.920Z,"   40"
2017-10-21T10:40:56.751Z,"   50"
2017-10-21T10:45:52.681Z,"   50"
2017-10-21T10:50:49.169Z,"   70"
2017-10-21T10:55:44.989Z,"  125"
2017-10-21T11:00:42.003Z,"  115"
2017-10-21T11:05:40.051Z,"  100"
2017-10-21T11:10:35.376Z,"   70"
2017-10-21T11:15:31.295Z,"   95"
2017-10-21T11:20:27.142Z,"   80"
2017-10-21T11:25:23.266Z,"   90"
2017-10-21T11:30:20.295Z,"  110"
2017-10-21T11:35:17.393Z,"   70"
2017-10-21T11:40:13.257Z,"  120"
2017-10-21T11:45:09.326Z,"  150"
2017-10-21T11:50:05.766Z,"  100"
2017-10-21T11:55:04.918Z,"   75"
2017-10-21T12:00:03.076Z,"   90"
2017-10-21T12:04:58.841Z,"  115"
2017-10-21T12:09:55.929Z,"  170"
2017-10-21T12:14:51.872Z,"  175"
2017-10-21T12:19:49.178Z,"  160"
2017-10-21T12:24:46.113Z,"  110"
2017-10-21T12:29:44.990Z,"  205"
2017-10-21T12:34:41.727Z,"  230"
2017-10-21T12:39:39.722Z,"  205"
2017-10-21T12:44:38.497Z,"  225"
2017-10-21T12:49:34.835Z,"  190"
2017-10-21T12:54:32.720Z,"  185"
2017-10-21T13:04:34.582Z,"  195"
2017-10-21T13:09:31.077Z,"  270"
2017-10-21T13:14:29.142Z,"  155"
2017-10-21T13:19:26.818Z,"  125"
2017-10-21T13:24:23.324Z,"  115"
2017-10-21T13:29:19.015Z,"   85"
2017-10-21T13:34:16.100Z,"   70"
2017-10-21T13:39:12.767Z,"   45"
2017-10-21T13:44:09.552Z,"   40"
2017-10-21T13:49:05.095Z,"   65"
2017-10-21T13:54:01.280Z,"  105"
2017-10-21T13:58:58.247Z,"  115"
2017-10-21T14:03:57.380Z,"   65"
2017-10-21T14:08:53.223Z,"   70"
2017-10-21T14:13:49.505Z,"  105"
2017-10-21T14:18:45.308Z,"   80"
2017-10-21T14:23:42.203Z,"   65"
2017-10-21T14:28:39.482Z,"  115"
2017-10-21T14:33:37.170Z,"  115"
2017-10-21T14:38:33.461Z,"  115"
2017-10-21T14:43:30.895Z,"  105"
2017-10-21T14:48:28.217Z,"   70"
2017-10-21T14:53:23.531Z,"   60"
2017-10-21T14:58:20.726Z,"   55"
2017-10-21T15:03:17.900Z,"   40"
2017-10-21T15:08:14.520Z,"   35"
2017-10-21T15:13:10.006Z,"   70"
2017-10-21T15:18:09.008Z,"   70"
2017-10-21T15:23:05.306Z,"   55"
2017-10-21T15:28:01.068Z,"   50"
2017-10-21T15:32:58.274Z,"   45"
2017-10-21T15:37:53.823Z,"   30"
2017-10-21T15:42:51.056Z,"   25"
2017-10-21T15:47:47.320Z,"   25"
2017-10-21T15:52:43.125Z,"   20"
2017-10-21T15:57:38.942Z,"   15"
2017-10-21T16:02:34.737Z,"   15"
2017-10-21T16:07:31.808Z,"   15"
2017-10-21T16:12:28.343Z,"   10"
2017-10-21T16:17:26.397Z,"    5"
2017-10-21T16:22:21.581Z,"    5"
2017-10-21T16:27:18.783Z,"    0"
2017-10-21T16:32:15.774Z,"    0"
2017-10-21T16:37:12.059Z,"    0"
2017-10-21T16:42:09.207Z,"    0"
2017-10-21T16:47:05.354Z,"    0"
2017-10-21T16:52:02.111Z,"    0"
2017-10-21T16:56:58.692Z,"    0"
2017-10-21T17:01:55.151Z,"    0"
2017-10-21T17:06:50.453Z,"    0"
2017-10-21T17:11:46.370Z,"    0"
2017-10-21T17:16:42.913Z,"    0"
2017-10-21T17:21:39.832Z,"    0"
2017-10-21T17:26:36.678Z,"    0"
2017-10-21T17:31:33.076Z,"    0"
2017-10-21T17:36:31.013Z,"    0"
2017-10-21T17:41:26.179Z,"    0"
2017-10-21T17:46:22.740Z,"    0"
2017-10-21T17:51:19.199Z,"    0"
2017-10-21T17:56:14.186Z,"    0"
2017-10-21T18:01:11.139Z,"    0"
2017-10-21T18:06:06.642Z,"    0"
2017-10-21T18:11:03.745Z,"    0"
2017-10-21T18:15:59.955Z,"    0"
2017-10-21T18:20:57.804Z,"    0"
2017-10-21T18:25:54.491Z,"    0"
2017-10-21T18:30:52.149Z,"    0"
2017-10-21T18:35:47.589Z,"    0"
2017-10-21T18:40:44.448Z,"    0"
2017-10-21T18:45:41.148Z,"    0"
2017-10-21T18:50:37.787Z,"    0"
2017-10-21T18:55:34.470Z,"    0"
2017-10-21T19:00:31.037Z,"    0"
2017-10-21T19:05:28.834Z,"    0"
2017-10-21T19:10:25.149Z,"    0"
2017-10-21T19:15:21.423Z,"    0"
2017-10-21T19:20:18.007Z,"    0"
2017-10-21T19:25:15.203Z,"    0"
2017-10-21T19:30:11.862Z,"    0"
2017-10-21T19:35:07.348Z,"    0"
2017-10-21T19:40:04.049Z,"    0"
2017-10-21T19:45:00.838Z,"    0"
2017-10-21T19:49:56.092Z,"    0"
2017-10-21T19:54:53.479Z,"    0"
2017-10-21T19:59:51.142Z,"    0"
2017-10-21T20:04:46.939Z,"    0"
2017-10-21T20:09:44.529Z,"    0"
2017-10-21T20:14:40.811Z,"    0"
2017-10-21T20:19:37.516Z,"    0"
2017-10-21T20:24:34.342Z,"    0"
2017-10-21T20:29:29.689Z,"    0"
2017-10-21T20:34:26.427Z,"    0"
2017-10-21T20:39:22.942Z,"    0"
2017-10-21T20:44:19.945Z,"    0"
2017-10-21T20:49:17.045Z,"    0"
2017-10-21T20:54:12.664Z,"    0"
2017-10-21T20:59:10.486Z,"    0"
2017-10-21T21:04:06.987Z,"    0"
2017-10-21T21:09:02.176Z,"    0"
2017-10-21T21:13:58.348Z,"    0"
2017-10-21T21:18:56.233Z,"    0"
2017-10-21T21:23:52.719Z,"    0"
2017-10-21T21:28:50.227Z,"    0"
2017-10-21T21:33:49.652Z,"    0"
2017-10-21T21:38:45.515Z,"    0"
2017-10-21T21:43:41.773Z,"    0"
2017-10-21T21:48:37.622Z,"    0"
2017-10-21T21:53:34.297Z,"    0"
2017-10-21T21:58:29.879Z,"    0"
2017-10-21T22:03:26.551Z,"    0"
2017-10-21T22:08:22.368Z,"    0"
2017-10-21T22:13:17.898Z,"    0"
2017-10-21T22:18:14.381Z,"    0"
2017-10-21T22:23:10.271Z,"    0"
2017-10-21T22:28:06.218Z,"    0"
2017-10-21T22:33:04.232Z,"    0"
2017-10-21T22:38:00.882Z,"    0"
2017-10-21T22:42:57.751Z,"    0"
2017-10-21T22:47:54.862Z,"    0"
2017-10-21T22:52:51.282Z,"    0"
2017-10-21T22:57:47.577Z,"    0"
2017-10-21T23:02:42.823Z,"    0"
2017-10-21T23:07:40.254Z,"    0"
2017-10-21T23:12:35.699Z,"    0"
2017-10-21T23:17:31.000Z,"    0"
2017-10-21T23:22:28.908Z,"    0"
2017-10-21T23:27:25.746Z,"    0"
2017-10-21T23:32:22.386Z,"    0"
2017-10-21T23:37:18.868Z,"    0"
2017-10-21T23:42:15.509Z,"    0"
2017-10-21T23:47:11.370Z,"    0"
2017-10-21T23:52:06.747Z,"    0"
2017-10-21T23:57:03.844Z,"    0"
